Time;durP1;ratioP1;P1;durP2;ratioP2;P2;SDS_P1;SDS_P2;PMS_P1;PMS_P2;Temp;Humidity;BMP_temperature;BMP_pressure;BME280_temperature;BME280_humidity;BME280_pressure;Samples;Min_cycle;Max_cycle;Signal;HPM_P1;HPM_P2
2023/03/21 00:01:13;;;;;;;43.25;21.25;;;21.20;63.50;;;;;;5056720;28;20072;-75
2023/03/21 00:03:42;;;;;;;44.17;22.88;;;21.20;63.70;;;;;;5053542;28;20041;-75
2023/03/21 00:06:10;;;;;;;47.95;23.05;;;21.20;63.70;;;;;;5053469;28;20055;-75
2023/03/21 00:08:37;;;;;;;40.78;20.88;;;21.20;63.90;;;;;;5062362;28;20040;-75
2023/03/21 00:11:06;;;;;;;47.70;22.77;;;21.10;63.90;;;;;;5053409;28;20032;-75
2023/03/21 00:13:37;;;;;;;40.72;21.00;;;21.20;64.00;;;;;;5071201;28;20059;-75
2023/03/21 00:16:04;;;;;;;43.67;21.33;;;21.20;64.10;;;;;;5061386;28;20472;-75
2023/03/21 00:18:30;;;;;;;35.78;19.65;;;21.10;64.20;;;;;;5050866;28;20049;-75
2023/03/21 00:21:02;;;;;;;38.35;19.92;;;21.00;64.20;;;;;;5061573;28;20025;-75
2023/03/21 00:23:29;;;;;;;38.65;19.67;;;21.20;64.40;;;;;;5049157;28;20025;-75
2023/03/21 00:25:56;;;;;;;39.65;20.02;;;21.00;64.30;;;;;;5063923;28;20035;-75
2023/03/21 00:28:22;;;;;;;41.80;20.88;;;21.00;64.40;;;;;;5042090;28;20036;-75
2023/03/21 00:30:49;;;;;;;40.15;21.50;;;21.10;64.70;;;;;;5033251;28;20423;-75
2023/03/21 00:33:19;;;;;;;41.25;20.60;;;21.00;64.60;;;;;;5050791;28;20060;-75
2023/03/21 00:35:48;;;;;;;39.03;21.63;;;21.00;64.50;;;;;;5062250;28;20037;-75
2023/03/21 00:38:15;;;;;;;42.35;21.88;;;21.00;64.50;;;;;;5069769;28;20446;-75
2023/03/21 00:40:41;;;;;;;47.97;22.48;;;21.00;64.80;;;;;;5056102;28;20408;-75
2023/03/21 00:43:10;;;;;;;42.92;21.05;;;21.00;64.80;;;;;;5065567;28;20116;-75
2023/03/21 00:45:37;;;;;;;47.00;22.15;;;21.00;64.70;;;;;;5057720;28;20029;-75
2023/03/21 00:48:04;;;;;;;45.13;22.05;;;21.10;64.60;;;;;;5039037;28;20020;-75
2023/03/21 00:50:33;;;;;;;38.80;20.85;;;21.20;64.50;;;;;;5068158;28;20369;-75
2023/03/21 00:52:59;;;;;;;46.25;20.95;;;21.10;64.40;;;;;;5033745;28;20913;-75
2023/03/21 00:55:25;;;;;;;43.03;22.20;;;21.10;64.40;;;;;;5050764;28;20473;-75
2023/03/21 00:57:53;;;;;;;41.33;21.42;;;21.20;64.20;;;;;;5050851;28;20037;-75
2023/03/21 01:00:19;;;;;;;43.22;21.15;;;21.20;64.20;;;;;;5050702;28;20079;-75
2023/03/21 01:02:57;;;;;;;46.33;22.10;;;21.30;64.30;;;;;;5047732;28;20067;-75
2023/03/21 01:08:16;;;;;;;43.53;21.85;;;21.30;64.10;;;;;;5042613;28;20051;-76
2023/03/21 01:10:44;;;;;;;42.00;20.40;;;21.40;63.90;;;;;;5032955;28;20448;-75
2023/03/21 01:13:13;;;;;;;42.25;21.98;;;21.30;63.70;;;;;;5053895;28;20113;-75
2023/03/21 01:15:51;;;;;;;44.88;22.10;;;21.30;63.60;;;;;;5084426;28;20056;-75
2023/03/21 01:18:20;;;;;;;39.63;20.85;;;21.30;63.60;;;;;;5072563;28;20050;-75
2023/03/21 01:20:47;;;;;;;40.38;20.48;;;21.40;63.50;;;;;;5086487;28;20059;-75
2023/03/21 01:23:14;;;;;;;40.33;22.08;;;21.40;63.50;;;;;;5089281;28;20115;-75
2023/03/21 01:25:41;;;;;;;42.40;20.95;;;21.40;63.40;;;;;;5081131;28;20024;-75
2023/03/21 01:28:08;;;;;;;53.53;22.38;;;21.40;63.30;;;;;;5080066;28;20032;-75
2023/03/21 01:30:34;;;;;;;47.13;22.42;;;21.40;63.20;;;;;;5075795;28;20040;-75
2023/03/21 01:33:02;;;;;;;39.25;20.90;;;21.50;63.20;;;;;;5072572;28;20041;-75
2023/03/21 01:35:28;;;;;;;38.45;20.30;;;21.60;63.20;;;;;;5085427;28;20036;-75
2023/03/21 01:37:54;;;;;;;35.60;19.92;;;21.50;63.00;;;;;;5089949;28;20028;-75
2023/03/21 01:40:23;;;;;;;38.45;19.27;;;21.60;63.00;;;;;;5078445;28;20376;-75
2023/03/21 01:42:53;;;;;;;39.78;20.65;;;21.50;62.80;;;;;;5072706;28;20024;-75
2023/03/21 01:45:57;;;;;;;38.28;19.45;;;21.50;62.70;;;;;;5084566;28;20036;-75
2023/03/21 01:48:32;;;;;;;36.65;18.70;;;21.70;62.80;;;;;;5072581;28;20044;-75
2023/03/21 01:51:00;;;;;;;41.90;20.92;;;21.70;62.70;;;;;;5070733;28;20127;-75
2023/03/21 01:53:38;;;;;;;40.45;21.92;;;21.60;62.60;;;;;;5078346;28;20032;-75
2023/03/21 01:56:27;;;;;;;39.53;20.95;;;21.50;62.50;;;;;;5072956;28;20039;-75
2023/03/21 01:59:32;;;;;;;43.40;22.02;;;21.50;62.60;;;;;;5055897;28;20044;-75
2023/03/21 02:02:19;;;;;;;36.45;19.73;;;21.60;62.50;;;;;;4991441;28;20042;-75
2023/03/21 02:05:02;;;;;;;39.95;19.48;;;21.50;62.50;;;;;;4983679;28;20042;-75
2023/03/21 02:07:35;;;;;;;41.55;19.42;;;21.40;62.30;;;;;;4993291;28;20469;-75
2023/03/21 02:10:08;;;;;;;38.45;19.65;;;21.50;62.40;;;;;;4994786;28;20038;-75
2023/03/21 02:12:37;;;;;;;47.40;23.17;;;21.50;62.40;;;;;;4978677;28;20437;-75
2023/03/21 02:15:06;;;;;;;37.20;20.08;;;21.50;62.20;;;;;;4994546;28;20297;-75
2023/03/21 02:17:58;;;;;;;35.42;20.70;;;21.40;62.20;;;;;;4991522;28;20046;-75
2023/03/21 02:21:02;;;;;;;48.33;21.33;;;21.40;62.40;;;;;;4996734;28;20047;-75
2023/03/21 02:24:09;;;;;;;38.05;20.92;;;21.50;62.50;;;;;;5006152;28;20139;-75
2023/03/21 02:26:52;;;;;;;43.83;22.48;;;21.30;62.50;;;;;;4952575;29;20048;-75
2023/03/21 02:29:38;;;;;;;43.65;20.92;;;21.40;62.60;;;;;;4951288;28;20066;-75
2023/03/21 02:32:12;;;;;;;46.25;22.63;;;21.30;62.50;;;;;;4951247;29;20063;-75
2023/03/21 02:35:06;;;;;;;37.20;21.38;;;21.20;62.50;;;;;;4947291;28;20044;-75
2023/03/21 02:37:41;;;;;;;40.83;22.13;;;21.40;62.60;;;;;;4960417;28;20056;-75
2023/03/21 02:40:26;;;;;;;43.83;22.75;;;21.30;62.60;;;;;;5003245;28;20041;-75
2023/03/21 02:43:08;;;;;;;39.78;20.08;;;21.20;62.30;;;;;;5011978;28;20112;-75
2023/03/21 02:45:50;;;;;;;43.55;21.02;;;21.40;62.50;;;;;;5028702;28;20095;-75
2023/03/21 02:48:35;;;;;;;48.83;20.92;;;21.30;62.40;;;;;;5023183;28;20034;-75
2023/03/21 02:51:04;;;;;;;36.83;21.48;;;21.40;62.30;;;;;;5026368;28;20056;-75
2023/03/21 02:53:37;;;;;;;47.75;21.83;;;21.30;62.20;;;;;;4997860;28;20045;-75
2023/03/21 02:56:09;;;;;;;37.45;22.00;;;21.40;62.10;;;;;;4996039;28;20056;-75
2023/03/21 02:58:40;;;;;;;41.97;21.70;;;21.30;62.10;;;;;;5012273;28;20500;-75
2023/03/21 03:01:08;;;;;;;46.30;22.90;;;21.50;62.20;;;;;;5008853;28;20030;-75
2023/03/21 03:03:41;;;;;;;45.05;23.13;;;21.50;62.00;;;;;;5041187;28;20495;-75
2023/03/21 03:06:26;;;;;;;42.80;22.88;;;21.50;62.00;;;;;;5090638;28;20081;-75
2023/03/21 03:09:06;;;;;;;47.42;23.20;;;21.40;61.70;;;;;;5074439;28;20048;-75
2023/03/21 03:11:40;;;;;;;47.55;23.45;;;21.40;61.70;;;;;;5052977;28;20072;-75
2023/03/21 03:14:32;;;;;;;50.72;25.45;;;21.40;61.70;;;;;;5069567;28;20053;-75
2023/03/21 03:17:16;;;;;;;48.53;22.63;;;21.50;61.90;;;;;;5071539;28;20051;-75
2023/03/21 03:20:12;;;;;;;40.60;22.52;;;21.40;61.70;;;;;;5050980;28;20056;-75
2023/03/21 03:22:46;;;;;;;42.08;22.58;;;21.30;62.00;;;;;;5058876;28;20050;-75
2023/03/21 03:25:19;;;;;;;42.53;23.13;;;21.30;61.90;;;;;;5072830;28;20047;-75
2023/03/21 03:27:49;;;;;;;48.63;23.05;;;21.40;62.10;;;;;;5071043;28;20039;-75
2023/03/21 03:30:17;;;;;;;46.05;20.33;;;21.30;62.20;;;;;;5069536;28;20070;-75
2023/03/21 03:32:51;;;;;;;42.38;22.20;;;21.30;62.20;;;;;;5052531;28;20119;-75
2023/03/21 03:35:21;;;;;;;42.70;21.42;;;21.20;62.10;;;;;;5070019;28;20078;-75
2023/03/21 03:37:54;;;;;;;39.22;21.40;;;21.30;62.60;;;;;;5046551;28;20533;-75
2023/03/21 03:40:30;;;;;;;44.00;20.45;;;21.20;62.40;;;;;;5078465;28;20044;-75
2023/03/21 03:43:20;;;;;;;38.28;19.33;;;21.30;62.40;;;;;;5071371;28;20040;-75
2023/03/21 03:45:52;;;;;;;39.00;19.65;;;21.20;62.20;;;;;;5069222;28;20021;-75
2023/03/21 03:48:34;;;;;;;40.38;20.67;;;21.20;62.20;;;;;;5070791;28;20033;-75
2023/03/21 03:51:09;;;;;;;41.90;20.85;;;21.40;62.30;;;;;;5070816;28;20039;-75
2023/03/21 03:54:10;;;;;;;38.03;19.80;;;21.20;62.00;;;;;;5012085;28;20053;-75
2023/03/21 03:56:37;;;;;;;37.13;20.70;;;21.40;62.20;;;;;;5009250;28;20712;-75
2023/03/21 03:59:06;;;;;;;37.58;19.88;;;21.30;62.10;;;;;;4993321;28;20268;-75
2023/03/21 04:02:02;;;;;;;40.42;20.92;;;21.30;62.00;;;;;;4932147;29;20040;-75
2023/03/21 04:04:28;;;;;;;42.33;21.17;;;21.40;62.10;;;;;;4924539;29;20054;-75
2023/03/21 04:06:55;;;;;;;40.60;21.45;;;21.20;61.70;;;;;;4929496;29;20047;-75
2023/03/21 04:09:24;;;;;;;40.83;20.17;;;21.30;61.80;;;;;;4917129;29;20060;-75
2023/03/21 04:11:50;;;;;;;36.58;19.67;;;21.40;61.80;;;;;;4914975;29;20056;-75
2023/03/21 04:14:16;;;;;;;39.60;20.13;;;21.20;61.80;;;;;;4912646;29;20048;-75
2023/03/21 04:16:44;;;;;;;43.70;21.25;;;21.40;62.10;;;;;;4926077;29;20079;-75
2023/03/21 04:19:10;;;;;;;42.47;22.15;;;21.20;62.10;;;;;;4930073;29;20599;-76
2023/03/21 04:21:37;;;;;;;42.22;20.83;;;21.20;62.20;;;;;;4933440;29;20036;-76
2023/03/21 04:24:03;;;;;;;37.35;20.17;;;21.20;62.30;;;;;;4913752;29;20043;-75
2023/03/21 04:26:32;;;;;;;40.03;20.05;;;21.10;62.40;;;;;;4931060;29;20397;-75
2023/03/21 04:29:33;;;;;;;42.78;20.42;;;21.10;62.40;;;;;;4884274;29;20053;-76
2023/03/21 04:32:00;;;;;;;40.70;19.98;;;21.10;63.10;;;;;;4924403;29;20040;-76
2023/03/21 04:34:29;;;;;;;35.38;18.48;;;21.00;63.60;;;;;;4926860;29;20381;-76
2023/03/21 04:36:58;;;;;;;37.92;18.85;;;21.10;64.30;;;;;;4928889;29;20480;-76
2023/03/21 04:39:24;;;;;;;42.10;21.67;;;21.10;64.10;;;;;;4990621;28;20045;-75
2023/03/21 04:41:50;;;;;;;35.38;19.58;;;21.30;63.80;;;;;;4985107;28;20038;-75
2023/03/21 04:44:17;;;;;;;41.47;18.83;;;21.30;63.80;;;;;;4989020;28;20043;-75
2023/03/21 04:46:44;;;;;;;34.22;16.67;;;21.40;63.60;;;;;;4972875;28;20073;-77
2023/03/21 04:49:11;;;;;;;37.72;18.67;;;21.40;63.50;;;;;;4962471;28;20044;-73
2023/03/21 04:51:37;;;;;;;32.45;18.38;;;21.40;63.10;;;;;;4983683;28;20042;-75
2023/03/21 04:54:08;;;;;;;36.03;19.65;;;21.40;63.00;;;;;;4992314;28;20400;-72
2023/03/21 04:56:35;;;;;;;39.40;17.67;;;21.40;63.00;;;;;;4995933;28;20052;-75
2023/03/21 04:59:11;;;;;;;39.72;20.55;;;21.40;62.80;;;;;;4994745;28;20061;-76
2023/03/21 05:01:37;;;;;;;33.28;18.42;;;21.40;63.10;;;;;;5012494;28;20489;-76
2023/03/21 05:04:04;;;;;;;33.63;16.45;;;21.50;63.10;;;;;;5056946;28;20033;-76
2023/03/21 05:06:32;;;;;;;36.15;17.27;;;21.30;63.20;;;;;;5073547;28;20055;-76
2023/03/21 05:09:00;;;;;;;29.33;15.85;;;21.40;62.80;;;;;;5074844;28;20047;-76
2023/03/21 05:11:29;;;;;;;37.20;18.63;;;21.50;62.50;;;;;;5069507;28;20052;-76
2023/03/21 05:13:56;;;;;;;34.60;18.20;;;21.70;62.00;;;;;;5020346;28;20044;-76
2023/03/21 05:16:25;;;;;;;37.58;18.63;;;21.50;62.10;;;;;;5054234;28;20060;-76
2023/03/21 05:18:53;;;;;;;36.00;18.90;;;21.50;62.40;;;;;;5003602;28;20041;-76
2023/03/21 05:21:22;;;;;;;36.30;18.85;;;21.40;62.50;;;;;;5054409;28;20061;-76
2023/03/21 05:23:54;;;;;;;38.40;21.35;;;21.40;62.60;;;;;;5036523;28;20073;-76
2023/03/21 05:26:22;;;;;;;40.85;20.98;;;21.30;62.70;;;;;;5036500;28;20036;-76
2023/03/21 05:29:07;;;;;;;39.38;21.73;;;21.30;62.80;;;;;;5036407;28;20025;-76
2023/03/21 05:31:35;;;;;;;41.58;20.83;;;21.20;62.70;;;;;;5036028;28;20400;-76
2023/03/21 05:34:08;;;;;;;43.13;20.42;;;21.20;62.80;;;;;;5036231;28;20388;-76
2023/03/21 05:36:35;;;;;;;38.30;19.63;;;21.20;62.80;;;;;;5019871;28;20037;-76
2023/03/21 05:39:03;;;;;;;32.78;19.40;;;21.10;62.90;;;;;;5036248;28;20032;-76
2023/03/21 05:41:33;;;;;;;35.13;18.42;;;21.10;62.80;;;;;;5036099;28;20033;-76
2023/03/21 05:44:02;;;;;;;37.33;18.95;;;21.10;62.80;;;;;;5036090;28;20032;-76
2023/03/21 05:46:28;;;;;;;32.67;18.15;;;21.20;62.60;;;;;;5035987;28;20037;-76
2023/03/21 05:48:55;;;;;;;37.17;19.35;;;21.20;62.60;;;;;;5019412;28;20086;-76
2023/03/21 05:51:22;;;;;;;34.83;19.00;;;21.30;62.60;;;;;;5035858;28;20029;-76
2023/03/21 05:53:48;;;;;;;32.63;17.33;;;21.30;62.60;;;;;;5035844;28;20025;-76
2023/03/21 05:56:15;;;;;;;39.65;19.00;;;21.30;62.40;;;;;;5053950;28;20040;-76
2023/03/21 05:58:59;;;;;;;35.95;18.17;;;21.30;62.40;;;;;;5036060;28;20281;-76
2023/03/21 06:01:26;;;;;;;34.72;20.20;;;21.30;62.30;;;;;;5035919;28;20036;-76
2023/03/21 06:04:04;;;;;;;39.47;18.75;;;21.30;62.30;;;;;;5034915;28;20036;-76
2023/03/21 06:06:30;;;;;;;37.72;19.67;;;21.30;62.20;;;;;;5035743;28;20067;-76
2023/03/21 06:08:59;;;;;;;43.53;19.77;;;21.30;62.20;;;;;;5053513;28;20123;-76
2023/03/21 06:11:29;;;;;;;36.78;18.15;;;21.30;62.00;;;;;;5020524;28;20056;-76
2023/03/21 06:14:15;;;;;;;33.20;18.75;;;21.40;61.90;;;;;;5051044;28;20043;-76
2023/03/21 06:16:42;;;;;;;43.00;19.73;;;21.40;61.90;;;;;;5034307;28;20044;-76
2023/03/21 06:19:08;;;;;;;42.13;21.50;;;21.30;61.90;;;;;;5033758;28;20053;-76
2023/03/21 06:21:59;;;;;;;38.20;20.13;;;21.30;61.80;;;;;;5033895;28;20055;-76
2023/03/21 06:24:25;;;;;;;38.58;20.23;;;21.30;61.90;;;;;;5034241;28;20745;-76
2023/03/21 06:26:51;;;;;;;39.88;19.33;;;21.40;61.90;;;;;;5033967;28;20144;-75
2023/03/21 06:29:17;;;;;;;35.55;19.67;;;21.30;61.80;;;;;;5050756;28;20037;-76
2023/03/21 06:31:47;;;;;;;35.22;18.95;;;21.30;61.90;;;;;;5033843;28;20056;-76
2023/03/21 06:34:15;;;;;;;41.78;18.35;;;21.20;61.70;;;;;;5033709;28;20041;-76
2023/03/21 06:36:43;;;;;;;41.42;19.88;;;21.30;61.70;;;;;;5033915;28;20443;-76
2023/03/21 06:39:10;;;;;;;35.50;19.10;;;21.40;61.70;;;;;;5033665;28;20053;-76
2023/03/21 06:41:38;;;;;;;40.65;18.65;;;21.20;61.50;;;;;;5037684;28;20055;-76
2023/03/21 06:44:05;;;;;;;38.45;18.88;;;21.30;61.70;;;;;;5071540;28;20028;-76
2023/03/21 06:46:36;;;;;;;37.13;20.23;;;21.30;61.60;;;;;;5071454;28;20738;-77
2023/03/21 06:49:02;;;;;;;38.08;19.73;;;21.30;61.60;;;;;;5071488;28;20107;-76
2023/03/21 06:51:29;;;;;;;35.70;19.67;;;21.20;61.30;;;;;;5071381;28;20174;-76
2023/03/21 06:54:08;;;;;;;32.70;18.83;;;21.30;61.30;;;;;;5071271;28;20089;-76
2023/03/21 06:56:53;;;;;;;37.22;18.83;;;21.30;61.30;;;;;;5072439;28;20032;-76
2023/03/21 06:59:25;;;;;;;46.25;19.70;;;21.30;61.20;;;;;;5071270;28;20056;-76
2023/03/21 07:01:59;;;;;;;41.78;19.98;;;21.40;61.00;;;;;;5071044;28;20036;-76
2023/03/21 07:04:26;;;;;;;37.63;20.15;;;21.50;61.00;;;;;;5054529;28;20427;-76
2023/03/21 07:06:54;;;;;;;36.40;18.67;;;21.50;60.90;;;;;;5071177;28;20044;-76
2023/03/21 07:09:23;;;;;;;39.95;19.02;;;21.50;60.90;;;;;;5070862;28;20028;-75
2023/03/21 07:11:52;;;;;;;41.53;19.10;;;21.50;60.90;;;;;;5070767;28;20124;-76
2023/03/21 07:14:21;;;;;;;33.50;19.42;;;21.60;60.80;;;;;;5071133;28;20044;-77
2023/03/21 07:16:47;;;;;;;30.60;16.98;;;21.50;60.60;;;;;;5071220;28;20033;-76
2023/03/21 07:19:15;;;;;;;33.92;16.92;;;21.60;60.50;;;;;;5071920;28;20055;-76
2023/03/21 07:21:42;;;;;;;30.38;18.05;;;21.50;60.40;;;;;;5070859;28;20032;-76
2023/03/21 07:24:08;;;;;;;43.60;18.35;;;21.60;60.20;;;;;;5070710;28;20043;-76
2023/03/21 07:26:35;;;;;;;33.63;15.38;;;21.60;60.20;;;;;;5071193;28;20090;-76
2023/03/21 07:29:03;;;;;;;31.35;15.68;;;21.60;60.30;;;;;;5054500;28;20063;-76
2023/03/21 07:31:29;;;;;;;39.78;17.33;;;21.60;60.30;;;;;;5070423;28;20039;-76
2023/03/21 07:33:55;;;;;;;32.55;17.08;;;21.70;60.30;;;;;;5071668;28;20500;-76
2023/03/21 07:36:22;;;;;;;37.70;17.77;;;21.60;60.20;;;;;;5070464;28;20077;-76
2023/03/21 07:38:48;;;;;;;30.60;18.08;;;21.50;60.20;;;;;;5068935;28;20056;-76
2023/03/21 07:41:19;;;;;;;29.20;16.92;;;21.70;60.30;;;;;;5069031;28;20102;-76
2023/03/21 07:43:45;;;;;;;33.85;16.77;;;21.50;60.20;;;;;;5052557;28;20431;-76
2023/03/21 07:46:11;;;;;;;39.88;16.60;;;21.60;60.20;;;;;;5052548;28;20040;-76
2023/03/21 07:48:38;;;;;;;22.27;12.77;;;21.50;60.10;;;;;;5069249;28;20044;-76
2023/03/21 07:51:05;;;;;;;28.40;14.82;;;21.40;60.10;;;;;;5052210;28;20036;-75
2023/03/21 07:53:31;;;;;;;24.55;12.68;;;21.50;60.40;;;;;;5052498;28;20123;-76
2023/03/21 07:55:57;;;;;;;22.30;11.75;;;21.70;60.40;;;;;;5069057;28;20123;-76
2023/03/21 07:58:27;;;;;;;21.65;11.80;;;21.60;60.10;;;;;;5068713;28;20192;-76
2023/03/21 08:00:55;;;;;;;24.05;12.15;;;21.60;60.00;;;;;;5068936;28;20033;-76
2023/03/21 08:03:22;;;;;;;24.63;11.45;;;21.60;59.70;;;;;;5068772;28;20040;-76
2023/03/21 08:05:49;;;;;;;21.55;13.00;;;21.70;59.80;;;;;;5068899;28;20032;-76
2023/03/21 08:08:15;;;;;;;23.05;11.32;;;21.70;59.60;;;;;;5068948;28;20505;-76
2023/03/21 08:10:44;;;;;;;17.30;9.85;;;21.90;59.50;;;;;;5067150;28;20063;-76
2023/03/21 08:13:12;;;;;;;18.75;11.30;;;21.90;59.20;;;;;;5051754;28;20045;-76
2023/03/21 08:15:40;;;;;;;19.88;9.98;;;21.90;58.90;;;;;;5051132;28;20029;-76
2023/03/21 08:18:07;;;;;;;23.42;11.63;;;22.10;58.90;;;;;;5051087;28;20152;-76
2023/03/21 08:20:33;;;;;;;19.52;10.93;;;22.00;58.70;;;;;;5051193;28;20037;-76
2023/03/21 08:22:59;;;;;;;18.77;10.05;;;22.10;58.70;;;;;;5033201;28;20100;-76
2023/03/21 08:25:25;;;;;;;20.85;12.10;;;22.10;58.50;;;;;;5033144;28;20043;-76
2023/03/21 08:27:52;;;;;;;25.60;11.85;;;22.20;58.50;;;;;;5050639;28;20033;-76
2023/03/21 08:30:21;;;;;;;20.63;11.90;;;22.10;58.60;;;;;;5050835;28;20033;-76
2023/03/21 08:32:48;;;;;;;23.08;11.32;;;22.10;58.70;;;;;;5050695;28;20075;-76
2023/03/21 08:35:17;;;;;;;24.13;12.63;;;22.10;58.70;;;;;;5051034;28;20033;-76
2023/03/21 08:37:43;;;;;;;21.35;11.70;;;22.10;58.60;;;;;;5051051;28;20040;-77
2023/03/21 08:40:14;;;;;;;21.73;12.13;;;22.10;58.60;;;;;;5033153;28;20028;-76
2023/03/21 08:42:41;;;;;;;25.13;12.85;;;22.20;58.60;;;;;;5050910;28;20021;-76
2023/03/21 08:45:08;;;;;;;25.55;13.68;;;22.10;58.60;;;;;;5050933;28;20041;-76
2023/03/21 08:47:34;;;;;;;22.60;12.27;;;22.10;58.60;;;;;;5050806;28;20356;-76
2023/03/21 08:50:00;;;;;;;26.77;14.52;;;22.10;58.60;;;;;;5050740;28;20428;-75
2023/03/21 08:52:27;;;;;;;23.65;10.68;;;22.10;58.60;;;;;;5050641;28;20124;-76
2023/03/21 08:54:54;;;;;;;22.52;12.30;;;22.30;58.70;;;;;;5050830;28;20065;-76
2023/03/21 08:57:21;;;;;;;30.95;12.65;;;22.10;58.50;;;;;;5050705;28;20069;-76
2023/03/21 08:59:47;;;;;;;17.80;10.85;;;22.10;58.60;;;;;;5050737;28;20033;-76
2023/03/21 09:02:15;;;;;;;18.50;11.18;;;22.10;58.70;;;;;;5050598;28;20041;-76
2023/03/21 09:04:42;;;;;;;19.25;11.48;;;22.10;58.70;;;;;;5050960;28;20028;-76
2023/03/21 09:07:11;;;;;;;23.48;12.27;;;22.30;58.70;;;;;;5050887;28;20033;-76
2023/03/21 09:09:38;;;;;;;22.45;12.90;;;22.20;58.60;;;;;;5050778;28;20032;-76
2023/03/21 09:12:04;;;;;;;22.30;12.77;;;22.20;58.60;;;;;;5050618;28;20052;-75
2023/03/21 09:14:30;;;;;;;24.60;12.98;;;22.20;58.60;;;;;;5050658;28;20140;-76
2023/03/21 09:16:56;;;;;;;32.42;13.23;;;22.30;58.70;;;;;;5050306;28;20090;-76
2023/03/21 09:19:23;;;;;;;17.73;10.52;;;22.30;58.60;;;;;;5050510;28;20083;-76
2023/03/21 09:21:49;;;;;;;19.20;10.95;;;22.20;58.50;;;;;;5032720;28;20047;-76
2023/03/21 09:24:16;;;;;;;22.60;13.32;;;22.20;58.50;;;;;;5050225;28;20056;-76
2023/03/21 09:26:43;;;;;;;27.35;13.68;;;22.40;58.60;;;;;;5050389;28;20502;-76
2023/03/21 09:29:10;;;;;;;24.52;13.50;;;22.30;58.60;;;;;;5050320;28;20096;-76
2023/03/21 09:31:36;;;;;;;24.20;13.10;;;22.30;58.50;;;;;;5050638;28;20048;-76
2023/03/21 09:34:02;;;;;;;27.13;14.13;;;22.40;58.50;;;;;;5050265;28;20344;-76
2023/03/21 09:36:33;;;;;;;21.13;12.95;;;22.30;58.50;;;;;;5050521;28;20033;-76
2023/03/21 09:39:00;;;;;;;28.13;15.85;;;22.30;58.50;;;;;;5052931;28;20056;-76
2023/03/21 09:41:51;;;;;;;28.77;15.68;;;22.30;58.50;;;;;;5054163;28;20041;-76
2023/03/21 09:44:17;;;;;;;30.38;14.95;;;22.30;58.50;;;;;;5053865;28;20029;-76
2023/03/21 09:46:53;;;;;;;27.23;13.65;;;22.30;58.50;;;;;;5054036;28;20029;-76
2023/03/21 09:49:29;;;;;;;26.70;14.25;;;22.20;58.40;;;;;;5053698;28;20037;-76
2023/03/21 09:51:59;;;;;;;32.17;16.45;;;22.30;58.50;;;;;;5053654;28;20088;-76
2023/03/21 09:54:29;;;;;;;34.70;15.55;;;22.20;58.40;;;;;;5053836;28;20040;-76
2023/03/21 09:56:59;;;;;;;31.20;15.65;;;22.40;58.50;;;;;;5053963;28;20167;-76
2023/03/21 09:59:38;;;;;;;33.65;17.30;;;22.20;58.40;;;;;;5035615;28;20084;-76
2023/03/21 10:02:35;;;;;;;32.70;16.73;;;22.30;58.50;;;;;;5053565;28;20501;-76
2023/03/21 10:05:09;;;;;;;27.30;13.98;;;22.20;58.40;;;;;;5053558;28;20496;-76
2023/03/21 10:07:41;;;;;;;29.17;15.98;;;22.40;58.60;;;;;;5053413;28;20033;-76
2023/03/21 10:10:16;;;;;;;30.13;17.33;;;22.30;58.60;;;;;;5053449;28;20029;-76
2023/03/21 10:12:44;;;;;;;26.85;14.60;;;22.30;58.60;;;;;;5053206;28;20777;-76
2023/03/21 10:15:17;;;;;;;30.52;14.85;;;22.20;58.50;;;;;;5053401;28;20029;-76
2023/03/21 10:18:04;;;;;;;29.50;16.17;;;22.40;58.60;;;;;;5053266;28;20496;-76
2023/03/21 10:20:33;;;;;;;22.08;12.57;;;22.20;58.40;;;;;;5052523;28;20037;-76
2023/03/21 10:23:05;;;;;;;26.30;15.02;;;22.40;58.60;;;;;;5052792;28;20036;-76
2023/03/21 10:25:33;;;;;;;26.00;12.55;;;22.40;58.60;;;;;;5053250;28;20028;-76
2023/03/21 10:28:01;;;;;;;25.98;13.48;;;22.30;58.50;;;;;;5052973;28;20052;-76
2023/03/21 10:30:39;;;;;;;26.27;13.32;;;22.40;58.50;;;;;;5053277;28;20033;-76
2023/03/21 10:33:08;;;;;;;30.13;13.93;;;22.40;58.50;;;;;;5052882;28;20040;-76
2023/03/21 10:35:36;;;;;;;25.65;13.35;;;22.50;58.60;;;;;;5053003;28;20071;-76
2023/03/21 10:38:04;;;;;;;25.60;13.70;;;22.40;58.40;;;;;;5052675;28;20051;-76
2023/03/21 10:40:30;;;;;;;24.77;13.50;;;22.30;58.40;;;;;;5052774;28;20025;-76
2023/03/21 10:43:14;;;;;;;22.70;13.18;;;22.40;58.40;;;;;;5052557;28;20104;-76
2023/03/21 10:45:40;;;;;;;22.33;11.77;;;22.40;58.40;;;;;;5052715;28;20029;-76
2023/03/21 10:48:07;;;;;;;26.42;13.27;;;22.40;58.40;;;;;;5052572;28;20093;-76
2023/03/21 10:50:34;;;;;;;29.42;15.55;;;22.30;58.40;;;;;;5052276;28;20488;-76
2023/03/21 10:53:02;;;;;;;22.60;12.05;;;22.20;58.30;;;;;;5052467;28;20086;-76
2023/03/21 10:55:39;;;;;;;30.60;15.10;;;22.30;58.40;;;;;;5035011;28;20146;-76
2023/03/21 10:58:17;;;;;;;26.25;15.02;;;22.20;58.30;;;;;;5052580;28;20477;-76
2023/03/21 11:00:45;;;;;;;21.83;12.55;;;22.30;58.40;;;;;;5034674;28;20036;-76
2023/03/21 11:03:42;;;;;;;24.77;12.77;;;22.10;58.30;;;;;;5052382;28;20040;-76
2023/03/21 11:06:36;;;;;;;26.77;14.80;;;22.30;58.50;;;;;;5052243;28;20104;-76
2023/03/21 11:09:14;;;;;;;30.05;16.02;;;22.30;57.60;;;;;;5052206;28;20531;-76
2023/03/21 11:11:49;;;;;;;26.77;15.07;;;22.20;58.40;;;;;;5052080;28;20049;-76
2023/03/21 11:14:31;;;;;;;27.15;16.27;;;22.30;58.50;;;;;;5051973;28;20484;-76
2023/03/21 11:16:57;;;;;;;28.95;15.40;;;22.10;58.60;;;;;;5052167;28;20079;-76
2023/03/21 11:19:35;;;;;;;22.85;14.18;;;22.20;58.60;;;;;;5033976;28;20048;-76
2023/03/21 11:22:06;;;;;;;25.75;14.23;;;22.20;58.60;;;;;;5053520;28;20032;-76
2023/03/21 11:24:34;;;;;;;20.90;12.25;;;22.30;58.70;;;;;;5051954;28;20029;-76
2023/03/21 11:27:06;;;;;;;25.23;13.40;;;22.30;58.70;;;;;;5051833;28;20523;-76
2023/03/21 11:29:39;;;;;;;27.05;12.85;;;22.20;58.60;;;;;;5051968;28;20041;-76
2023/03/21 11:32:36;;;;;;;21.80;12.40;;;22.20;58.60;;;;;;5051825;28;20484;-76
2023/03/21 11:35:24;;;;;;;22.50;11.43;;;22.40;58.60;;;;;;4970716;28;20047;-76
2023/03/21 11:37:52;;;;;;;25.13;12.80;;;22.20;58.50;;;;;;4970673;28;20042;-76
2023/03/21 11:40:27;;;;;;;18.15;10.50;;;22.30;58.60;;;;;;4970620;28;20042;-76
2023/03/21 11:42:55;;;;;;;22.25;11.60;;;22.30;58.60;;;;;;4970515;28;20049;-76
2023/03/21 11:45:24;;;;;;;20.35;10.73;;;22.40;58.50;;;;;;4970482;28;20042;-76
2023/03/21 11:47:52;;;;;;;21.35;12.68;;;22.30;58.50;;;;;;4971582;28;20077;-76
2023/03/21 11:50:28;;;;;;;25.23;13.43;;;22.20;58.30;;;;;;4954693;28;20039;-76
2023/03/21 11:53:26;;;;;;;20.83;11.82;;;22.40;58.50;;;;;;4970310;28;20119;-76
2023/03/21 11:55:55;;;;;;;23.27;12.45;;;22.20;58.40;;;;;;4951015;29;20054;-76
2023/03/21 11:58:41;;;;;;;25.33;12.90;;;22.40;58.60;;;;;;4950922;29;20222;-76
2023/03/21 12:01:14;;;;;;;21.38;11.68;;;22.30;58.60;;;;;;4950381;28;20043;-76
2023/03/21 12:04:33;;;;;;;25.77;13.65;;;22.30;58.60;;;;;;4951113;29;20066;-76
2023/03/21 12:07:03;;;;;;;24.83;12.35;;;22.30;58.50;;;;;;4875176;29;20082;-76
2023/03/21 12:09:35;;;;;;;22.67;11.68;;;22.20;58.40;;;;;;4875190;29;20089;-76
2023/03/21 12:12:25;;;;;;;29.13;14.07;;;22.20;58.40;;;;;;4913792;29;20087;-77
2023/03/21 12:15:16;;;;;;;23.77;12.48;;;22.30;58.50;;;;;;4950729;29;20578;-76
2023/03/21 12:18:04;;;;;;;24.92;13.45;;;22.20;58.40;;;;;;4950695;29;20035;-77
2023/03/21 12:20:33;;;;;;;24.50;14.38;;;22.20;58.50;;;;;;4950815;29;20078;-77
2023/03/21 12:23:21;;;;;;;18.50;10.35;;;22.20;58.50;;;;;;4950701;29;20507;-77
2023/03/21 12:25:58;;;;;;;15.50;8.20;;;22.20;58.60;;;;;;4948768;29;20050;-77
2023/03/21 12:28:39;;;;;;;18.38;10.82;;;22.30;58.60;;;;;;4950686;29;20042;-76
2023/03/21 12:31:16;;;;;;;16.45;9.57;;;22.20;58.40;;;;;;4950691;29;20039;-76
2023/03/21 12:34:16;;;;;;;12.75;7.10;;;22.30;58.50;;;;;;5002683;28;20510;-77
2023/03/21 12:36:54;;;;;;;11.40;7.18;;;22.30;58.50;;;;;;4992511;28;20065;-76
2023/03/21 12:39:47;;;;;;;13.52;8.07;;;22.30;58.50;;;;;;5008661;28;20152;-76
2023/03/21 12:42:50;;;;;;;16.35;8.55;;;22.30;58.50;;;;;;4989263;28;20100;-76
2023/03/21 12:45:40;;;;;;;15.02;8.57;;;22.30;58.50;;;;;;4972921;28;20042;-76
2023/03/21 12:48:21;;;;;;;17.27;9.00;;;22.30;58.40;;;;;;4989096;28;20430;-76
2023/03/21 12:50:52;;;;;;;15.55;8.40;;;22.40;58.40;;;;;;4989271;28;20438;-77
2023/03/21 12:53:34;;;;;;;12.02;8.05;;;22.40;58.40;;;;;;4988955;28;20047;-76
2023/03/21 12:56:06;;;;;;;12.52;7.90;;;22.40;58.40;;;;;;4989240;28;20382;-75
2023/03/21 12:58:48;;;;;;;12.15;6.25;;;22.30;58.40;;;;;;4988997;28;20086;-76